Terminal Aerodrome Forecast
Issued by NWS Jackson, KY

Home | Current Version | Previous Version | Text Only | Print | Product List | Glossary On
Versions: 1 2 3 4 5 6 7 8 9 10 11 12 13 14 15 16 17 18 19
000
FTUS43 KJKL 151752
TAFJKL
TAF
KJKL 151752Z 1518/1618 VRB05KT P6SM BKN100
     FM152100 22008KT P6SM VCSH OVC090
     FM152300 23006KT P6SM -SHRA OVC050
     FM160200 23005KT P6SM VCSH OVC015
     FM160400 24008KT P6SM VCSH OVC007
     FM160900 27006KT P6SM BKN015
     FM161300 27006KT P6SM SCT150=

USA.gov is the U.S. government's official web portal to all federal, state and local government web resources and services.